Terminal Aerodrome Forecast
Issued by NWS Dodge City, KS

Home | Current Version | Previous Version | Graphics & Text | Print | Product List | Glossary Off
Versions: 1 2 3 4 5 6 7 8 9 10 11 12 13 14 15 16 17 18 19 20 21

000
FTUS43 KDDC 200520
TAFDDC
TAF
KDDC 200520Z 2006/2106 17012KT P6SM BKN140
      TEMPO 2008/2011 3SM BR
     FM201100 24012KT P6SM FEW200
     FM201600 32016G24KT P6SM FEW250
     FM210000 34010KT P6SM SKC=

USA.gov is the U.S. government's official web portal to all federal, state and local government web resources and services.